TimeCDT,TemperatureF,Dew PointF,Humidity,Sea Level PressureIn,VisibilityMPH,Wind Direction,Wind SpeedMPH,Gust SpeedMPH,PrecipitationIn,Events,Conditions,WindDirDegrees,DateUTC
12:53 AM,64.9,45.0,48,29.60,10.0,South,13.8,-,N/A,,Clear,170,2013-09-23 05:53:00
1:53 AM,63.0,45.0,52,29.59,10.0,South,13.8,-,N/A,,Clear,170,2013-09-23 06:53:00
2:53 AM,63.0,46.9,56,29.65,10.0,SW,10.4,-,0.00,Rain,Light Rain,230,2013-09-23 07:53:00
3:53 AM,61.0,48.9,64,29.61,10.0,SSW,6.9,-,0.00,,Clear,200,2013-09-23 08:53:00
4:53 AM,61.0,48.9,64,29.56,10.0,SSE,11.5,-,N/A,,Partly Cloudy,160,2013-09-23 09:53:00
5:53 AM,63.0,50.0,63,29.52,10.0,South,18.4,23.0,0.00,,Overcast,180,2013-09-23 10:53:00
6:53 AM,62.1,50.0,65,29.54,10.0,South,17.3,24.2,N/A,,Mostly Cloudy,190,2013-09-23 11:53:00
7:53 AM,61.0,50.0,67,29.56,10.0,SSW,15.0,-,N/A,,Clear,200,2013-09-23 12:53:00
8:53 AM,64.0,48.0,56,29.56,10.0,SSW,18.4,-,N/A,,Clear,200,2013-09-23 13:53:00
9:53 AM,68.0,48.9,50,29.57,10.0,SW,18.4,27.6,N/A,,Clear,220,2013-09-23 14:53:00
10:53 AM,73.0,44.1,35,29.59,10.0,WSW,20.7,28.8,N/A,,Clear,250,2013-09-23 15:53:00
11:53 AM,75.9,41.0,29,29.60,10.0,NW,17.3,23.0,N/A,,Clear,320,2013-09-23 16:53:00
12:53 PM,78.1,43.0,29,29.62,10.0,Variable,6.9,-,N/A,,Clear,0,2013-09-23 17:53:00
1:53 PM,78.1,45.0,31,29.62,10.0,NNW,10.4,-,N/A,,Clear,330,2013-09-23 18:53:00
2:53 PM,78.1,44.1,30,29.62,10.0,Variable,4.6,-,N/A,,Clear,0,2013-09-23 19:53:00
3:53 PM,80.1,44.1,28,29.64,10.0,Variable,3.5,-,N/A,,Clear,0,2013-09-23 20:53:00
4:53 PM,80.1,41.0,25,29.66,10.0,NW,5.8,-,N/A,,Mostly Cloudy,320,2013-09-23 21:53:00
5:53 PM,77.0,48.9,37,29.69,10.0,North,5.8,-,0.00,Rain,Light Rain,360,2013-09-23 22:53:00
6:53 PM,75.9,44.1,32,29.73,10.0,North,18.4,25.3,0.00,,Partly Cloudy,10,2013-09-23 23:53:00
7:53 PM,69.1,46.0,44,29.77,10.0,NNE,8.1,-,N/A,,Clear,20,2013-09-24 00:53:00
8:53 PM,64.9,46.9,52,29.82,10.0,North,6.9,-,N/A,,Clear,10,2013-09-24 01:53:00
9:53 PM,63.0,46.9,56,29.85,10.0,North,6.9,-,N/A,,Clear,10,2013-09-24 02:53:00
10:53 PM,64.0,46.0,52,29.86,10.0,Calm,Calm,-,N/A,,Clear,0,2013-09-24 03:53:00
11:53 PM,59.0,46.9,64,29.89,10.0,Calm,Calm,-,N/A,,Scattered Clouds,0,2013-09-24 04:53:00